Time;durP1;ratioP1;P1;durP2;ratioP2;P2;SDS_P1;SDS_P2;PMS_P1;PMS_P2;Temp;Humidity;BMP_temperature;BMP_pressure;BME280_temperature;BME280_humidity;BME280_pressure;Samples;Min_cycle;Max_cycle;Signal;HPM_P1;HPM_P2
2023/08/19 00:01:38;;;;;;;8.33;2.83;;;;;;;27.08;44.61;98970.31;4850469;29;20196;-84
2023/08/19 00:04:05;;;;;;;4.23;2.70;;;;;;;27.14;44.68;98976.81;4844655;29;20204;-84
2023/08/19 00:06:36;;;;;;;6.53;2.57;;;;;;;27.17;44.64;98969.19;4844737;29;20553;-84
2023/08/19 00:09:04;;;;;;;4.00;2.60;;;;;;;27.19;44.23;98961.75;4828132;29;20192;-84
2023/08/19 00:11:31;;;;;;;4.80;2.37;;;;;;;27.18;44.69;98964.63;4841273;29;20261;-84
2023/08/19 00:13:58;;;;;;;6.67;2.77;;;;;;;27.16;44.63;98964.00;4846055;29;20209;-85
2023/08/19 00:16:26;;;;;;;4.97;2.40;;;;;;;27.15;44.79;98968.53;4828345;29;20636;-85
2023/08/19 00:18:53;;;;;;;4.07;1.97;;;;;;;27.13;45.10;98964.38;4844745;29;20185;-84
2023/08/19 00:21:19;;;;;;;5.07;1.93;;;;;;;27.17;44.92;98973.75;4844632;29;20200;-84
2023/08/19 00:23:46;;;;;;;5.33;1.80;;;;;;;27.15;44.59;98965.84;4827916;29;20274;-84
2023/08/19 00:26:13;;;;;;;6.90;1.90;;;;;;;27.20;44.43;98973.38;4828022;29;20262;-84
2023/08/19 00:28:40;;;;;;;2.93;1.60;;;;;;;27.16;44.40;98967.53;4828099;29;20275;-84
2023/08/19 00:31:07;;;;;;;4.93;2.10;;;;;;;27.17;44.61;98968.34;4828162;29;20554;-84
2023/08/19 00:33:35;;;;;;;3.50;1.60;;;;;;;27.14;44.48;98980.34;4828101;29;20213;-84
2023/08/19 00:36:06;;;;;;;4.77;2.10;;;;;;;27.14;44.63;98991.09;4844505;29;20177;-84
2023/08/19 00:38:33;;;;;;;5.00;2.03;;;;;;;27.11;44.59;98986.09;4844474;29;20531;-84
2023/08/19 00:41:02;;;;;;;3.23;1.77;;;;;;;27.08;44.66;98985.63;4844136;29;20189;-84
2023/08/19 00:43:28;;;;;;;3.10;1.53;;;;;;;26.98;44.76;98988.63;4844252;29;20181;-84
2023/08/19 00:45:55;;;;;;;7.37;2.03;;;;;;;27.02;44.52;98981.84;4827808;29;20615;-84
2023/08/19 00:48:23;;;;;;;2.85;1.42;;;;;;;27.01;44.82;98993.63;4827927;29;20612;-84
2023/08/19 00:50:50;;;;;;;5.17;1.53;;;;;;;26.95;45.04;98999.75;4843930;29;20276;-84
2023/08/19 00:53:17;;;;;;;4.47;1.50;;;;;;;26.87;45.49;99007.09;4827632;29;20195;-84
2023/08/19 00:55:43;;;;;;;3.88;1.98;;;;;;;26.73;45.73;99008.72;4844146;29;20208;-84
2023/08/19 00:58:11;;;;;;;3.63;1.83;;;;;;;26.71;45.73;99008.09;4843957;29;20216;-85
2023/08/19 01:00:38;;;;;;;4.23;1.73;;;;;;;26.71;45.74;99000.88;4827704;29;20181;-85
2023/08/19 01:03:06;;;;;;;3.50;1.80;;;;;;;26.68;45.91;98986.94;4827375;29;20188;-85
2023/08/19 01:05:53;;;;;;;4.63;1.77;;;;;;;26.81;45.97;98973.69;4841885;29;20217;-84
2023/08/19 01:08:26;;;;;;;3.97;1.60;;;;;;;26.83;45.05;98971.69;4844158;29;20173;-84
2023/08/19 01:11:29;;;;;;;6.23;1.80;;;;;;;26.75;45.28;98971.75;4827331;29;20707;-84
2023/08/19 01:14:34;;;;;;;7.53;2.03;;;;;;;26.66;45.48;98989.00;4843680;29;20240;-84
2023/08/19 01:17:08;;;;;;;6.97;1.27;;;;;;;26.68;45.44;98997.69;4821645;29;20624;-84
2023/08/19 01:19:36;;;;;;;6.00;2.20;;;;;;;26.64;45.46;98993.72;4843571;29;20289;-84
2023/08/19 01:22:07;;;;;;;3.57;1.90;;;;;;;26.59;45.37;98996.97;4842794;29;20249;-84
2023/08/19 01:24:37;;;;;;;4.57;1.67;;;;;;;26.52;45.21;98973.72;4843179;29;20245;-84
2023/08/19 01:27:05;;;;;;;5.07;1.80;;;;;;;26.45;45.27;98981.69;4825042;29;20237;-84
2023/08/19 01:29:32;;;;;;;3.50;1.80;;;;;;;26.34;45.12;98997.41;4825241;29;20277;-83
2023/08/19 01:31:59;;;;;;;6.33;1.97;;;;;;;26.33;45.23;99001.13;4832443;29;20185;-83
2023/08/19 01:34:26;;;;;;;3.57;2.10;;;;;;;26.36;45.37;99006.16;4826750;29;20209;-83
2023/08/19 01:36:59;;;;;;;3.73;1.73;;;;;;;26.39;45.34;99005.78;4843604;29;20181;-84
2023/08/19 01:39:28;;;;;;;4.03;1.97;;;;;;;26.44;44.95;98998.00;4826322;29;20215;-84
2023/08/19 01:41:55;;;;;;;3.77;2.00;;;;;;;26.47;44.98;98997.59;4825647;29;20569;-84
2023/08/19 01:44:24;;;;;;;11.67;2.33;;;;;;;26.46;45.23;98996.78;4841895;29;20177;-84
2023/08/19 01:46:50;;;;;;;4.03;1.53;;;;;;;26.45;44.78;98999.66;4843023;29;20185;-84
2023/08/19 01:49:17;;;;;;;4.17;1.80;;;;;;;26.47;44.95;98992.22;4842839;29;20189;-84
2023/08/19 01:51:43;;;;;;;3.70;1.87;;;;;;;26.46;45.09;98975.28;4842433;29;20706;-84
2023/08/19 01:54:10;;;;;;;3.93;1.73;;;;;;;26.43;44.95;98962.22;4842591;29;20216;-84
2023/08/19 01:56:37;;;;;;;4.60;1.83;;;;;;;26.36;44.95;98953.22;4842664;29;20177;-84
2023/08/19 01:59:03;;;;;;;5.87;1.93;;;;;;;26.32;45.01;98959.97;4843146;29;20207;-84
2023/08/19 02:01:30;;;;;;;5.93;1.67;;;;;;;26.34;44.79;98943.66;4842963;29;20572;-84
2023/08/19 02:03:57;;;;;;;4.63;1.60;;;;;;;26.38;44.91;98939.59;4842405;29;20555;-84
2023/08/19 02:06:24;;;;;;;4.20;1.70;;;;;;;26.39;44.90;98946.66;4826557;29;20193;-84
2023/08/19 02:08:51;;;;;;;3.47;1.70;;;;;;;26.39;44.42;98941.28;4842483;29;20179;-85
2023/08/19 02:11:17;;;;;;;5.93;1.77;;;;;;;26.39;44.50;98952.03;4842494;29;20269;-84
2023/08/19 02:13:44;;;;;;;4.70;1.50;;;;;;;26.43;44.42;98947.94;4842220;29;20215;-84
2023/08/19 02:16:11;;;;;;;4.13;2.50;;;;;;;26.43;44.37;98946.09;4842548;29;20185;-84
2023/08/19 02:18:37;;;;;;;6.57;1.87;;;;;;;26.45;44.47;98946.72;4842838;29;20196;-84
2023/08/19 02:21:04;;;;;;;4.40;1.77;;;;;;;26.41;44.24;98939.22;4826466;29;20671;-84
2023/08/19 02:23:30;;;;;;;3.70;1.60;;;;;;;26.44;44.31;98945.06;4842191;29;20200;-84
2023/08/19 02:25:56;;;;;;;3.33;1.47;;;;;;;26.42;44.13;98936.34;4842889;29;20269;-84
2023/08/19 02:28:21;;;;;;;2.80;1.20;;;;;;;26.41;43.91;98929.31;4826133;29;20703;-84
2023/08/19 02:30:47;;;;;;;3.33;1.57;;;;;;;26.38;44.10;98920.78;4842534;29;20195;-84
2023/08/19 02:33:14;;;;;;;3.77;1.80;;;;;;;26.33;43.90;98907.91;4825968;29;20181;-85
2023/08/19 02:35:41;;;;;;;4.30;1.80;;;;;;;26.34;44.00;98911.41;4842016;29;20197;-85
2023/08/19 02:38:07;;;;;;;3.67;2.00;;;;;;;26.33;43.87;98910.59;4842314;29;20181;-84
2023/08/19 02:40:34;;;;;;;3.50;1.70;;;;;;;26.33;44.14;98904.38;4826155;29;20253;-84
2023/08/19 02:43:01;;;;;;;3.60;1.80;;;;;;;26.30;43.78;98910.13;4841885;29;20180;-84
2023/08/19 02:45:27;;;;;;;5.20;1.80;;;;;;;26.35;43.62;98899.66;4826101;29;20188;-84
2023/08/19 02:47:54;;;;;;;5.47;1.67;;;;;;;26.35;43.93;98905.88;4842382;29;20177;-84
2023/08/19 02:50:21;;;;;;;5.10;1.60;;;;;;;26.39;43.74;98903.66;4842495;29;20700;-84
2023/08/19 02:52:46;;;;;;;4.77;1.70;;;;;;;26.43;43.59;98900.41;4842620;29;20267;-84
2023/08/19 02:55:13;;;;;;;3.33;2.10;;;;;;;26.37;43.79;98886.84;4825815;29;20340;-84
2023/08/19 02:57:40;;;;;;;4.73;1.97;;;;;;;26.40;43.61;98894.53;4842357;29;20181;-85
2023/08/19 03:00:07;;;;;;;3.30;1.33;;;;;;;26.40;43.61;98895.38;4841803;29;21567;-84
2023/08/19 03:02:33;;;;;;;2.60;1.57;;;;;;;26.42;43.92;98904.09;4841976;29;20219;-85
2023/08/19 03:05:00;;;;;;;3.10;1.83;;;;;;;26.47;43.57;98901.66;4841996;29;20660;-84
2023/08/19 03:07:28;;;;;;;3.53;1.40;;;;;;;26.37;43.87;98922.63;4842570;29;20182;-85
2023/08/19 03:09:54;;;;;;;4.13;2.20;;;;;;;26.36;43.98;98930.91;4841774;29;20188;-85
2023/08/19 03:12:21;;;;;;;6.77;1.90;;;;;;;26.40;43.85;98934.88;4825758;29;20279;-84
2023/08/19 03:14:48;;;;;;;4.30;1.40;;;;;;;26.39;44.01;98934.03;4841579;29;20274;-84
2023/08/19 03:17:14;;;;;;;4.43;1.97;;;;;;;26.41;43.94;98936.53;4825722;29;20667;-84
2023/08/19 03:19:41;;;;;;;4.10;1.80;;;;;;;26.44;43.90;98949.63;4842121;29;20204;-83
2023/08/19 03:22:08;;;;;;;6.30;1.43;;;;;;;26.46;43.49;98958.31;4841593;29;20189;-84
2023/08/19 03:24:34;;;;;;;4.83;1.77;;;;;;;26.44;43.62;98965.75;4825827;29;20632;-83
2023/08/19 03:27:01;;;;;;;3.20;1.60;;;;;;;26.43;43.53;98974.81;4841659;29;20233;-83
2023/08/19 03:29:27;;;;;;;4.63;1.33;;;;;;;26.41;44.04;98974.16;4843218;29;20189;-84
2023/08/19 03:31:54;;;;;;;3.83;2.17;;;;;;;26.40;44.19;98980.56;4828259;29;20588;-84
2023/08/19 03:34:21;;;;;;;6.87;2.10;;;;;;;26.38;44.49;98994.19;4845155;29;20204;-84
2023/08/19 03:36:48;;;;;;;3.40;1.13;;;;;;;26.40;44.82;98980.56;4845738;29;20181;-84
2023/08/19 03:39:14;;;;;;;5.50;1.77;;;;;;;26.46;44.95;98963.69;4845159;29;20330;-84
2023/08/19 03:41:41;;;;;;;4.13;1.67;;;;;;;26.48;44.55;98964.34;4844709;29;20189;-84
2023/08/19 03:44:07;;;;;;;5.57;1.97;;;;;;;26.39;44.84;98970.84;4844841;29;20631;-84
2023/08/19 03:46:34;;;;;;;4.07;1.73;;;;;;;26.48;44.56;98957.13;4845278;29;20334;-84
2023/08/19 03:49:01;;;;;;;2.00;1.20;;;;;;;26.50;44.48;98956.91;4845302;29;20174;-84
2023/08/19 03:51:30;;;;;;;5.50;2.07;;;;;;;26.36;44.77;98947.84;4845036;29;20189;-84
2023/08/19 03:53:56;;;;;;;4.37;1.57;;;;;;;26.13;45.66;98931.78;4844644;29;20228;-84
2023/08/19 03:56:23;;;;;;;6.87;1.80;;;;;;;26.11;46.43;98939.19;4828650;29;20177;-84
2023/08/19 03:58:49;;;;;;;5.57;2.10;;;;;;;25.99;46.65;98924.53;4845366;29;20192;-83
2023/08/19 04:01:16;;;;;;;3.50;1.70;;;;;;;25.92;47.25;98922.75;4844449;29;20553;-83
2023/08/19 04:03:43;;;;;;;3.27;1.90;;;;;;;25.92;47.49;98917.38;4844357;29;20544;-83
2023/08/19 04:06:09;;;;;;;5.50;1.70;;;;;;;25.95;47.95;98917.84;4844949;29;20199;-84
2023/08/19 04:08:36;;;;;;;2.80;1.37;;;;;;;26.04;47.92;98914.09;4844570;29;20208;-84
2023/08/19 04:11:07;;;;;;;3.73;1.40;;;;;;;26.05;48.13;98891.56;4828417;29;20185;-84
2023/08/19 04:13:33;;;;;;;4.77;1.90;;;;;;;26.05;48.30;98880.81;4844143;29;20647;-84
2023/08/19 04:16:07;;;;;;;2.67;1.30;;;;;;;26.04;48.70;98879.16;4844798;29;20200;-84
2023/08/19 04:18:34;;;;;;;3.90;1.77;;;;;;;25.57;48.81;98892.06;4844316;29;20253;-85
2023/08/19 04:21:05;;;;;;;2.70;1.57;;;;;;;25.61;49.48;98879.94;4844491;29;20644;-83
2023/08/19 04:23:32;;;;;;;7.80;1.90;;;;;;;25.75;49.55;98880.97;4844696;29;20181;-84
2023/08/19 04:25:59;;;;;;;3.53;1.90;;;;;;;25.68;49.48;98905.06;4844571;29;20181;-84
2023/08/19 04:28:26;;;;;;;4.20;1.90;;;;;;;25.87;48.78;98926.00;4843924;29;20197;-84
2023/08/19 04:31:08;;;;;;;3.90;1.63;;;;;;;26.03;48.48;98925.84;4844422;29;20268;-84
2023/08/19 04:33:35;;;;;;;3.27;1.77;;;;;;;26.08;48.32;98915.38;4843736;29;20189;-84
2023/08/19 04:36:03;;;;;;;3.47;1.43;;;;;;;26.01;48.95;98911.75;4844192;29;20181;-84
2023/08/19 04:38:30;;;;;;;3.67;1.63;;;;;;;26.06;48.59;98917.41;4843433;29;20194;-84
2023/08/19 04:41:00;;;;;;;4.20;1.97;;;;;;;26.15;48.72;98929.75;4843745;29;20185;-83
2023/08/19 04:43:27;;;;;;;3.00;1.57;;;;;;;26.10;48.78;98926.75;4844441;29;20173;-84
2023/08/19 04:45:54;;;;;;;3.17;1.60;;;;;;;25.98;49.63;98913.97;4844529;29;20278;-83
2023/08/19 04:48:21;;;;;;;4.03;1.90;;;;;;;25.82;50.59;98906.91;4843807;29;20265;-83
2023/08/19 04:50:52;;;;;;;5.13;1.90;;;;;;;25.83;51.34;98895.16;4827751;29;20555;-84
2023/08/19 04:53:19;;;;;;;7.20;2.70;;;;;;;25.50;53.65;98883.03;4843061;29;20189;-84
2023/08/19 04:55:45;;;;;;;9.60;2.77;;;;;;;24.98;55.68;98896.31;4818284;29;20186;-84
2023/08/19 04:58:12;;;;;;;5.07;2.37;;;;;;;25.23;55.00;98913.94;4820781;29;20551;-84
2023/08/19 05:00:38;;;;;;;5.93;2.67;;;;;;;25.32;54.82;98942.38;4834365;29;20189;-85
2023/08/19 05:03:05;;;;;;;4.97;2.00;;;;;;;25.29;54.51;98947.28;4842049;29;20191;-83
2023/08/19 05:05:32;;;;;;;5.83;2.50;;;;;;;25.25;54.11;98946.78;4823298;29;20567;-84
2023/08/19 05:07:58;;;;;;;4.43;1.97;;;;;;;25.28;53.01;98951.81;4841900;29;20267;-85
2023/08/19 05:10:25;;;;;;;5.13;2.23;;;;;;;25.40;52.64;98977.19;4827489;29;20174;-83
2023/08/19 05:12:51;;;;;;;5.60;2.23;;;;;;;25.48;51.65;98973.66;4843236;29;20208;-84
2023/08/19 05:15:18;;;;;;;11.03;2.47;;;;;;;25.49;51.48;98973.47;4843038;29;20207;-84
2023/08/19 05:17:45;;;;;;;4.90;2.27;;;;;;;25.29;52.07;98966.88;4823791;29;20189;-84
2023/08/19 05:20:12;;;;;;;5.83;2.20;;;;;;;25.44;51.40;98975.00;4841138;29;20189;-83
2023/08/19 05:22:39;;;;;;;3.50;1.80;;;;;;;25.37;51.50;98966.81;4825107;29;20743;-84
2023/08/19 05:25:06;;;;;;;3.57;1.93;;;;;;;25.40;51.76;98987.09;4838747;29;20184;-83
2023/08/19 05:27:31;;;;;;;4.23;1.80;;;;;;;25.29;51.80;98995.56;4841716;29;20307;-84
2023/08/19 05:29:58;;;;;;;4.23;2.50;;;;;;;25.40;51.82;98981.72;4842007;29;20189;-83
2023/08/19 05:32:25;;;;;;;9.30;2.33;;;;;;;25.39;51.86;98980.06;4836745;29;20181;-83
2023/08/19 05:34:51;;;;;;;6.13;1.33;;;;;;;25.35;51.35;98986.78;4835587;29;20216;-84
2023/08/19 05:37:18;;;;;;;4.77;1.97;;;;;;;25.54;50.95;98978.31;4827192;29;20193;-83
2023/08/19 05:39:44;;;;;;;3.57;1.77;;;;;;;25.66;50.72;98976.84;4827989;29;20574;-84
2023/08/19 05:42:12;;;;;;;6.17;2.47;;;;;;;25.45;51.06;98953.34;4816952;29;20237;-85
2023/08/19 05:44:38;;;;;;;3.97;1.80;;;;;;;25.31;51.22;98931.81;4842673;29;20177;-84
2023/08/19 05:47:05;;;;;;;3.60;2.10;;;;;;;25.14;51.76;98943.66;4842943;29;20188;-84
2023/08/19 05:49:32;;;;;;;3.60;1.70;;;;;;;25.33;51.31;98957.47;4842569;29;20525;-85
2023/08/19 05:51:58;;;;;;;3.40;1.77;;;;;;;25.52;51.29;98972.28;4833986;29;20254;-84
2023/08/19 05:54:24;;;;;;;3.73;2.13;;;;;;;25.70;50.47;98954.03;4841172;29;20197;-85
2023/08/19 05:56:51;;;;;;;4.13;1.87;;;;;;;25.70;49.94;98945.13;4842630;29;20185;-85
2023/08/19 05:59:21;;;;;;;3.33;1.83;;;;;;;25.49;50.75;98949.31;4826750;29;20223;-86
2023/08/19 06:01:48;;;;;;;5.07;1.90;;;;;;;25.77;50.48;98964.84;4826140;29;20671;-84
2023/08/19 06:04:15;;;;;;;4.80;2.07;;;;;;;25.70;50.76;98999.66;4840003;29;20697;-84
2023/08/19 06:06:42;;;;;;;4.77;2.20;;;;;;;25.68;51.24;99012.44;4834202;29;20229;-84
2023/08/19 06:09:09;;;;;;;5.27;2.07;;;;;;;25.80;51.08;98984.13;4834433;29;20668;-85
2023/08/19 06:11:47;;;;;;;5.13;2.33;;;;;;;25.83;50.56;98978.41;4823546;29;20641;-85
2023/08/19 06:14:14;;;;;;;5.53;1.63;;;;;;;25.94;49.75;98994.06;4813146;29;20228;-86
2023/08/19 06:16:41;;;;;;;6.07;2.20;;;;;;;25.91;49.89;98989.09;4834700;29;20334;-86
2023/08/19 06:19:08;;;;;;;5.90;2.20;;;;;;;26.04;50.00;98989.31;4818230;29;20185;-85
2023/08/19 06:21:34;;;;;;;6.17;2.07;;;;;;;26.46;49.28;98986.03;4840737;29;20568;-84
2023/08/19 06:24:01;;;;;;;4.03;1.87;;;;;;;26.54;49.26;98983.28;4826241;29;20177;-85
2023/08/19 06:26:28;;;;;;;5.40;1.90;;;;;;;26.94;49.25;98998.09;4841156;29;20188;-85
2023/08/19 06:28:53;;;;;;;10.43;2.47;;;;;;;27.46;47.10;98989.84;4841609;29;20316;-85
2023/08/19 06:31:21;;;;;;;3.20;1.90;;;;;;;27.40;47.64;98982.50;4840994;29;20190;-85
2023/08/19 06:33:50;;;;;;;7.53;2.20;;;;;;;27.88;46.11;98986.28;4839337;29;20736;-85
2023/08/19 06:36:23;;;;;;;6.55;2.65;;;;;;;28.26;44.54;98981.41;4809141;29;20212;-85
2023/08/19 06:39:00;;;;;;;4.40;2.00;;;;;;;28.73;45.24;98967.22;4828394;29;20197;-86
2023/08/19 06:41:28;;;;;;;4.55;2.17;;;;;;;29.30;42.74;98966.84;4836124;29;20268;-86
2023/08/19 06:43:57;;;;;;;4.90;2.05;;;;;;;29.68;42.51;98968.78;4839102;29;20193;-86
2023/08/19 06:46:25;;;;;;;4.85;2.20;;;;;;;30.12;42.10;98976.28;4842261;29;20212;-86
2023/08/19 06:48:52;;;;;;;3.35;1.85;;;;;;;30.52;41.38;98965.44;4823563;29;20233;-86
2023/08/19 06:51:19;;;;;;;5.88;3.22;;;;;;;30.86;39.63;98963.25;4831983;29;20192;-86
2023/08/19 06:53:46;;;;;;;6.13;2.80;;;;;;;30.92;37.36;98967.00;4835857;29;20671;-88
2023/08/19 06:56:36;;;;;;;4.07;1.95;;;;;;;30.79;37.35;98973.25;4822988;29;20196;-87
2023/08/19 06:59:31;;;;;;;9.10;1.70;;;;;;;30.93;37.95;98976.78;4821622;29;20193;-85
2023/08/19 07:02:02;;;;;;;4.68;1.70;;;;;;;30.69;37.46;98967.47;4817320;29;20193;-86
2023/08/19 07:04:31;;;;;;;4.13;2.08;;;;;;;30.84;36.89;98970.75;4843037;29;20173;-88
2023/08/19 07:07:03;;;;;;;6.53;1.90;;;;;;;30.85;37.07;98974.28;4826149;29;20205;-85
2023/08/19 07:09:31;;;;;;;8.30;2.30;;;;;;;30.75;36.79;98976.59;4841354;29;20185;-85
2023/08/19 07:11:58;;;;;;;3.33;1.80;;;;;;;30.60;37.41;98982.28;4843236;29;20690;-86
2023/08/19 07:14:26;;;;;;;4.10;1.73;;;;;;;30.39;37.75;98986.06;4844767;29;20213;-85
2023/08/19 07:16:58;;;;;;;4.38;1.95;;;;;;;29.89;37.98;98986.69;4841286;29;20196;-88
2023/08/19 07:19:43;;;;;;;2.60;1.52;;;;;;;29.85;38.18;98990.84;4820666;29;20220;-87
2023/08/19 07:22:10;;;;;;;6.65;2.13;;;;;;;30.21;38.65;98985.88;4811538;29;20178;-85
2023/08/19 07:24:37;;;;;;;5.13;2.00;;;;;;;30.48;37.48;98985.84;4844217;29;20234;-86
2023/08/19 07:27:05;;;;;;;4.85;2.17;;;;;;;30.57;37.47;98993.53;4827225;29;20297;-89
2023/08/19 07:29:32;;;;;;;4.75;2.03;;;;;;;30.80;37.42;98996.59;4827152;29;20659;-86
2023/08/19 07:32:01;;;;;;;3.20;1.70;;;;;;;30.85;36.88;98999.47;4826798;29;20196;-89
2023/08/19 07:34:28;;;;;;;3.50;1.58;;;;;;;31.12;37.02;98997.53;4843701;29;20205;-86
2023/08/19 07:36:56;;;;;;;3.42;1.83;;;;;;;31.19;36.87;98989.34;4844689;29;20563;-85
2023/08/19 07:39:23;;;;;;;9.80;1.75;;;;;;;31.65;36.84;98989.97;4826793;29;20209;-85
2023/08/19 07:41:49;;;;;;;4.18;1.70;;;;;;;32.14;35.72;98991.91;4843894;29;20635;-86
2023/08/19 07:44:16;;;;;;;6.03;2.33;;;;;;;32.33;35.29;98992.78;4844158;29;20184;-86
2023/08/19 07:46:43;;;;;;;4.03;2.17;;;;;;;32.29;35.11;98989.66;4814486;29;20261;-87
2023/08/19 07:49:09;;;;;;;4.93;2.03;;;;;;;32.42;34.81;98986.00;4842532;29;20193;-86
2023/08/19 07:51:36;;;;;;;5.68;1.92;;;;;;;32.79;34.39;98977.69;4844198;29;20196;-88
2023/08/19 07:54:02;;;;;;;4.07;1.98;;;;;;;32.83;34.48;98988.09;4828718;29;20269;-89
2023/08/19 07:56:29;;;;;;;4.82;1.92;;;;;;;32.05;34.41;98979.69;4844069;29;20204;-89
2023/08/19 07:58:56;;;;;;;6.63;2.28;;;;;;;32.14;35.43;98984.59;4826675;29;20284;-85
2023/08/19 08:01:22;;;;;;;7.68;2.28;;;;;;;32.05;34.87;98983.22;4818347;29;20200;-88
2023/08/19 08:03:49;;;;;;;8.43;2.05;;;;;;;32.29;35.66;98988.84;4844817;29;20550;-86
2023/08/19 08:06:16;;;;;;;3.20;1.98;;;;;;;32.51;34.54;98984.66;4828547;29;20288;-88
2023/08/19 08:08:42;;;;;;;9.95;2.22;;;;;;;32.37;34.63;98983.97;4824660;29;20204;-88
2023/08/19 08:11:09;;;;;;;5.80;1.98;;;;;;;32.78;34.71;98989.59;4828428;29;20636;-86
2023/08/19 08:13:36;;;;;;;5.57;2.10;;;;;;;33.00;33.75;98979.09;4843489;29;20182;-85
2023/08/19 08:16:03;;;;;;;5.85;2.10;;;;;;;33.31;33.93;98978.94;4842043;29;20208;-86
2023/08/19 08:18:29;;;;;;;5.78;1.52;;;;;;;33.67;33.66;98980.75;4826035;29;20271;-86
2023/08/19 08:20:56;;;;;;;4.45;2.17;;;;;;;33.88;33.08;98982.91;4826308;29;20185;-86
2023/08/19 08:23:23;;;;;;;2.72;1.60;;;;;;;34.16;32.94;98984.16;4842884;29;20188;-85
2023/08/19 08:25:49;;;;;;;5.70;2.05;;;;;;;34.26;32.39;98990.66;4842445;29;20281;-86
2023/08/19 08:28:16;;;;;;;3.05;1.45;;;;;;;34.26;32.21;98979.78;4841859;29;20376;-86
2023/08/19 08:30:43;;;;;;;3.65;1.35;;;;;;;34.38;31.10;98982.53;4844373;29;20240;-89
2023/08/19 08:33:10;;;;;;;3.50;1.75;;;;;;;34.68;31.58;98977.78;4843892;29;20571;-85
2023/08/19 08:35:37;;;;;;;2.65;1.55;;;;;;;34.80;30.92;98980.50;4841778;29;20220;-87
2023/08/19 08:38:04;;;;;;;6.78;2.05;;;;;;;34.62;31.56;98972.47;4842246;29;20340;-85
2023/08/19 08:40:34;;;;;;;3.53;1.52;;;;;;;34.58;31.21;98972.94;4842205;29;20185;-86
2023/08/19 08:43:02;;;;;;;2.88;1.70;;;;;;;34.76;31.35;98971.97;4842099;29;20181;-85
2023/08/19 08:45:31;;;;;;;9.07;2.20;;;;;;;34.89;30.81;98966.25;4841396;29;20206;-86
2023/08/19 08:48:00;;;;;;;6.45;2.30;;;;;;;34.92;31.02;98967.66;4842162;29;20181;-86
2023/08/19 08:50:28;;;;;;;7.15;1.90;;;;;;;34.97;31.21;98962.31;4843337;29;20181;-85
2023/08/19 08:52:56;;;;;;;4.78;1.58;;;;;;;35.28;31.61;98967.31;4843998;29;20636;-88
2023/08/19 08:55:23;;;;;;;3.60;1.70;;;;;;;35.41;30.42;98945.22;4827334;29;20209;-86
2023/08/19 08:57:50;;;;;;;5.03;1.60;;;;;;;35.42;30.51;98956.94;4827687;29;20270;-85
2023/08/19 09:00:17;;;;;;;5.95;1.48;;;;;;;35.80;29.05;98950.84;4844311;29;20185;-86
2023/08/19 09:02:46;;;;;;;5.97;1.77;;;;;;;35.75;28.43;98955.13;4844142;29;20572;-85
2023/08/19 09:05:13;;;;;;;4.05;1.35;;;;;;;35.81;28.61;98949.75;4843871;29;20608;-86
2023/08/19 09:07:41;;;;;;;3.35;1.70;;;;;;;35.89;28.81;98941.97;4843791;29;20200;-86
2023/08/19 09:10:15;;;;;;;9.25;1.73;;;;;;;36.36;28.19;98953.38;4843902;29;20185;-85
2023/08/19 09:13:00;;;;;;;8.73;1.80;;;;;;;36.21;29.62;98950.44;4852010;29;20177;-85
2023/08/19 09:15:31;;;;;;;3.65;1.80;;;;;;;36.07;28.80;98949.13;4834824;29;20208;-85
2023/08/19 09:18:02;;;;;;;5.15;1.42;;;;;;;36.20;28.77;98943.31;4842627;29;20651;-85
2023/08/19 09:20:31;;;;;;;5.05;1.83;;;;;;;36.38;28.79;98941.13;4814222;29;20193;-85
2023/08/19 09:23:11;;;;;;;2.42;1.45;;;;;;;36.03;28.42;98935.16;4839022;29;20297;-87
2023/08/19 09:25:39;;;;;;;5.43;1.40;;;;;;;35.71;28.88;98923.97;4827482;29;20627;-86
2023/08/19 09:28:06;;;;;;;4.95;1.70;;;;;;;35.88;29.50;98925.88;4842201;29;20639;-86
2023/08/19 09:30:53;;;;;;;4.38;2.00;;;;;;;36.10;29.47;98930.34;4854623;29;20249;-86
2023/08/19 09:33:20;;;;;;;2.58;1.50;;;;;;;36.33;28.70;98932.03;4833404;29;20657;-86
2023/08/19 09:35:55;;;;;;;2.83;1.33;;;;;;;36.59;28.53;98930.50;4823739;29;20209;-86
2023/08/19 09:38:26;;;;;;;5.72;1.50;;;;;;;36.52;28.73;98929.88;4801570;29;20197;-86
2023/08/19 09:41:10;;;;;;;3.22;1.45;;;;;;;36.67;27.96;98927.34;4827612;29;20185;-85
2023/08/19 09:43:40;;;;;;;2.90;1.45;;;;;;;36.96;28.37;98915.16;4808928;29;20169;-85
2023/08/19 09:46:08;;;;;;;4.50;1.55;;;;;;;37.02;28.15;98910.59;4820592;29;20650;-86
2023/08/19 09:48:35;;;;;;;1.90;1.13;;;;;;;37.41;27.20;98909.38;4830746;29;20258;-85
2023/08/19 09:51:02;;;;;;;7.30;2.00;;;;;;;37.32;26.98;98908.16;4837600;29;20197;-86
2023/08/19 09:53:32;;;;;;;7.03;1.35;;;;;;;37.51;26.84;98906.72;4811720;29;20193;-85
2023/08/19 09:55:58;;;;;;;4.15;1.40;;;;;;;37.23;27.13;98904.25;4842778;29;20189;-86
2023/08/19 09:58:25;;;;;;;3.35;1.75;;;;;;;37.32;26.63;98898.03;4841587;29;20673;-86
2023/08/19 10:00:50;;;;;;;3.38;1.50;;;;;;;37.45;26.56;98903.13;4842424;29;20273;-85
2023/08/19 10:03:20;;;;;;;7.10;2.33;;;;;;;37.29;26.95;98903.22;4825705;29;20208;-86
2023/08/19 10:05:54;;;;;;;3.40;1.65;;;;;;;37.18;27.21;98906.94;4842790;29;20188;-86
2023/08/19 10:08:25;;;;;;;4.03;1.30;;;;;;;36.80;28.26;98916.03;4842985;29;20184;-86
2023/08/19 10:10:52;;;;;;;3.28;1.40;;;;;;;36.40;28.55;98910.84;4827007;29;20165;-85
2023/08/19 10:13:21;;;;;;;5.95;1.67;;;;;;;36.87;28.00;98905.75;4842553;29;20204;-86
2023/08/19 10:15:50;;;;;;;6.47;1.85;;;;;;;36.80;28.24;98900.47;4809431;29;20307;-85
2023/08/19 10:18:22;;;;;;;2.42;1.23;;;;;;;37.16;28.87;98893.50;4827059;29;20192;-86
2023/08/19 10:20:55;;;;;;;2.95;1.38;;;;;;;37.18;28.04;98896.00;4806588;29;20198;-86
2023/08/19 10:23:24;;;;;;;2.75;1.45;;;;;;;37.62;27.71;98897.53;4842021;29;20230;-86
2023/08/19 10:25:51;;;;;;;3.13;1.50;;;;;;;37.22;28.19;98891.66;4828151;29;20189;-86
2023/08/19 10:28:28;;;;;;;3.30;1.23;;;;;;;36.40;29.03;98899.09;4809252;29;20247;-86
2023/08/19 10:31:14;;;;;;;4.88;1.63;;;;;;;36.99;29.59;98891.97;4842343;29;20592;-85
2023/08/19 10:33:46;;;;;;;4.28;1.88;;;;;;;37.42;28.44;98891.91;4840290;29;20624;-85
2023/08/19 10:36:16;;;;;;;3.63;1.60;;;;;;;37.45;28.73;98881.25;4822396;29;20185;-85
2023/08/19 10:38:58;;;;;;;4.85;1.55;;;;;;;38.00;28.63;98872.66;4829911;29;20692;-86
2023/08/19 10:41:38;;;;;;;4.22;1.90;;;;;;;38.37;27.66;98878.09;4846002;29;20192;-85
2023/08/19 10:44:12;;;;;;;5.25;1.63;;;;;;;38.31;27.46;98870.16;4848293;29;20207;-86
2023/08/19 10:46:53;;;;;;;5.18;1.65;;;;;;;38.40;27.21;98868.53;4830729;29;20189;-86
2023/08/19 10:49:21;;;;;;;4.90;1.95;;;;;;;38.23;26.41;98868.72;4816477;29;20200;-85
2023/08/19 10:52:00;;;;;;;3.80;1.75;;;;;;;38.03;27.13;98877.63;4833263;29;20210;-86
2023/08/19 10:54:44;;;;;;;5.60;1.58;;;;;;;38.00;25.34;98872.66;4839311;29;20206;-85
2023/08/19 10:57:25;;;;;;;5.35;1.40;;;;;;;38.15;25.95;98871.94;4847568;29;20189;-85
2023/08/19 11:00:07;;;;;;;3.13;1.52;;;;;;;37.36;26.22;98876.47;4847611;29;20275;-85
2023/08/19 11:02:35;;;;;;;3.22;1.42;;;;;;;37.48;26.71;98880.72;4847380;29;20245;-85
2023/08/19 11:05:03;;;;;;;3.40;1.80;;;;;;;37.83;25.75;98871.97;4848008;29;20180;-85
2023/08/19 11:07:30;;;;;;;4.38;1.73;;;;;;;38.37;24.75;98871.78;4848699;29;20177;-87
2023/08/19 11:09:57;;;;;;;2.40;1.40;;;;;;;38.35;24.97;98860.28;4830254;29;20177;-86
2023/08/19 11:12:26;;;;;;;3.42;1.75;;;;;;;38.33;25.52;98866.06;4853661;29;20189;-86
2023/08/19 11:14:55;;;;;;;2.42;1.33;;;;;;;38.20;24.96;98865.66;4847397;29;20296;-85
2023/08/19 11:17:32;;;;;;;3.40;1.88;;;;;;;38.37;25.89;98869.06;4831571;29;20684;-85
2023/08/19 11:20:10;;;;;;;4.63;1.95;;;;;;;38.97;24.48;98863.03;4838177;29;20728;-86
2023/08/19 11:22:48;;;;;;;3.22;1.63;;;;;;;39.16;25.48;98854.00;4830356;29;20196;-85
2023/08/19 11:25:16;;;;;;;2.90;1.67;;;;;;;39.00;24.63;98849.59;4840721;29;20222;-86
2023/08/19 11:27:43;;;;;;;2.70;1.30;;;;;;;38.95;24.80;98852.31;4828784;29;20236;-84
2023/08/19 11:30:11;;;;;;;3.60;1.30;;;;;;;39.01;24.78;98853.16;4829501;29;20176;-84
2023/08/19 11:32:43;;;;;;;8.45;1.90;;;;;;;38.95;24.86;98852.31;4816686;29;20222;-86
2023/08/19 11:35:08;;;;;;;3.95;1.92;;;;;;;39.27;24.57;98850.22;4847699;29;20197;-85
2023/08/19 11:37:35;;;;;;;5.40;1.60;;;;;;;39.43;24.26;98852.94;4831356;29;20537;-85
2023/08/19 11:40:05;;;;;;;3.35;1.77;;;;;;;38.90;25.12;98855.06;4830366;29;20193;-85
2023/08/19 11:43:08;;;;;;;3.80;1.85;;;;;;;38.58;25.25;98857.09;4829517;29;20186;-84